Ellerslie, GA

9:29 AM EDT on April 25, 2015 (GMT -0400)
RoseParadiseFarm Hwy 36 | | Change Station
CLOSE
Current Station
Personal Weather Station
Location: Waverly Hall, GA
Elevation: 804 ft
Nearby Weather Stations

Elev 804 ft 32.70 °N, 84.70 °W | Updated 2 seconds ago

Thunderstorm
Thunderstorm
62.4 °F
Feels Like 62.4 °F
N
0.0
Wind Variable Wind from North
Gusts 2.0 mph

Today
High -- | Low -- °F
--% Chance of Precip.
Yesterday
High -- | Low -- °F
Precip. -- in
6:58 AM 8:16 PM
Waxing Crescent, 46% visible
Pressure 29.84 in
Visibility 2.0 miles
Clouds Scattered Clouds 1700 ft
Mostly Cloudy 2500 ft
Overcast 10000 ft
Dew Point 62 °F
Humidity 97%
Rainfall 2.38 in
Snow Depth Not available.
UV 1 out of 12
Pollen 8.80 out of 12
Air Quality Not available.
Flu Activity Sporadic
SPECI KCSG 251323Z 20004KT 2SM -RA BR SCT017 BKN025 OVC100 17/17 A2984 RMK AO2 LTG DSNT SE AND S TSE17 P0040

More Conditions Fewer Conditions

Pressure 29.84 in
Visibility 2.0 miles
Clouds Scattered Clouds 1700 ft
Mostly Cloudy 2500 ft
Overcast 10000 ft
Dew Point 62 °F
Humidity 97%
Rainfall 2.38 in
Snow Depth Not available.
UV 1 out of 12
Pollen 8.80 out of 12
Air Quality Not available.
Flu Activity Sporadic
SPECI KCSG 251323Z 20004KT 2SM -RA BR SCT017 BKN025 OVC100 17/17 A2984 RMK AO2 LTG DSNT SE AND S TSE17 P0040

More Conditions Fewer Conditions

10-Day Weather Forecast

Almanac

Astronomy

Apr. 25, 2015 Rise Set
Actual Time
Civil Twilight
Nautical Twilight
Astronomical Twilight
Moon
Length of Visible Light
Length of Day
Tomorrow will be .
, % of the Moon is Illuminated

Today's Extremes

State Highs State Lows

Community

WunderPhotos

Upload Photos

1,816,663 photos uploaded!

WunderBlogs® & News

Nearby

Air Quality

  Air Quality AQ Index Pollutant
Not available.

Snow Depth

Station Depth Elevation

Earthquake Activity

City Distance Mag. Time & Date
Minimum magnitude displayed is 2.5.

Coastal Water Temperatures

Place Temperature

Stations

Nearby Weather Stations

Station Location Temp. Windchill Dew Point Humidity Wind Precip. Elev Updated Type